Time;durP1;ratioP1;P1;durP2;ratioP2;P2;SDS_P1;SDS_P2;PMS_P1;PMS_P2;Temp;Humidity;BMP_temperature;BMP_pressure;BME280_temperature;BME280_humidity;BME280_pressure;Samples;Min_cycle;Max_cycle;Signal;HPM_P1;HPM_P2
2022/05/17 00:02:02;;;;;;;4.57;3.15;;;17.70;99.90;;;;;;5119174;27;20177;-69
2022/05/17 00:04:28;;;;;;;4.15;3.25;;;17.60;99.90;;;;;;5133277;27;20189;-70
2022/05/17 00:06:54;;;;;;;4.63;3.58;;;17.60;99.90;;;;;;5121479;27;20309;-71
2022/05/17 00:09:19;;;;;;;4.45;3.40;;;17.60;99.90;;;;;;5117770;27;20615;-71
2022/05/17 00:11:46;;;;;;;5.82;3.67;;;17.60;99.90;;;;;;5116186;27;20186;-70
2022/05/17 00:14:12;;;;;;;6.13;3.58;;;17.50;99.90;;;;;;5121421;27;20219;-71
2022/05/17 00:16:39;;;;;;;4.32;3.38;;;17.50;99.90;;;;;;5120082;27;20193;-71
2022/05/17 00:19:04;;;;;;;3.78;3.22;;;17.40;99.90;;;;;;5119353;27;20226;-70
2022/05/17 00:21:30;;;;;;;4.05;3.60;;;17.50;99.90;;;;;;5123061;27;20174;-71
2022/05/17 00:23:56;;;;;;;5.13;3.40;;;17.40;99.90;;;;;;5113513;27;20209;-69
2022/05/17 00:26:21;;;;;;;9.52;3.50;;;17.50;99.90;;;;;;5114760;28;20166;-71
2022/05/17 00:28:47;;;;;;;3.88;3.42;;;17.60;99.90;;;;;;5130988;27;20255;-71
2022/05/17 00:31:13;;;;;;;5.18;3.50;;;17.40;99.90;;;;;;5126263;27;20184;-71
2022/05/17 00:33:38;;;;;;;6.00;3.78;;;17.30;99.90;;;;;;5127003;27;20178;-72
2022/05/17 00:36:04;;;;;;;5.13;3.58;;;17.50;99.90;;;;;;5113099;28;20641;-72
2022/05/17 00:38:30;;;;;;;7.70;3.80;;;17.50;99.90;;;;;;5124303;28;20208;-70
2022/05/17 00:40:56;;;;;;;6.15;3.60;;;17.50;99.90;;;;;;5131441;27;20205;-72
2022/05/17 00:43:29;;;;;;;7.45;3.63;;;17.60;99.90;;;;;;5117911;28;20184;-70
2022/05/17 00:46:01;;;;;;;6.57;3.58;;;17.60;99.90;;;;;;5121845;27;20218;-71
2022/05/17 00:48:27;;;;;;;3.40;3.10;;;17.60;99.90;;;;;;5117860;28;20631;-71
2022/05/17 00:50:54;;;;;;;5.65;3.38;;;17.50;99.90;;;;;;5132057;27;20180;-71
2022/05/17 00:53:32;;;;;;;3.42;3.05;;;17.50;99.90;;;;;;5129800;28;20170;-71
2022/05/17 00:56:00;;;;;;;5.15;3.78;;;17.60;99.90;;;;;;5122111;28;20193;-73
2022/05/17 00:58:33;;;;;;;10.68;3.50;;;17.60;99.90;;;;;;5120212;28;20212;-71
2022/05/17 01:01:06;;;;;;;5.47;3.50;;;17.60;99.90;;;;;;5116953;28;20185;-71
2022/05/17 01:03:42;;;;;;;4.95;3.47;;;17.50;99.90;;;;;;5114312;28;20205;-70
2022/05/17 01:06:09;;;;;;;5.93;3.45;;;17.60;99.90;;;;;;5114442;28;20301;-72
2022/05/17 01:08:35;;;;;;;4.43;3.67;;;17.60;99.90;;;;;;5121170;28;20166;-71
2022/05/17 01:11:01;;;;;;;8.20;4.00;;;17.70;99.90;;;;;;5136174;27;20657;-72
2022/05/17 01:16:11;;;;;;;6.53;4.10;;;17.80;99.90;;;;;;5125127;27;20299;-72
2022/05/17 01:18:41;;;;;;;5.03;3.95;;;17.70;99.90;;;;;;5125334;27;20676;-72
2022/05/17 01:21:08;;;;;;;6.50;4.07;;;17.80;99.90;;;;;;5124656;27;20181;-74
2022/05/17 01:23:33;;;;;;;5.28;4.47;;;17.70;99.90;;;;;;5123550;27;20256;-72
2022/05/17 01:25:59;;;;;;;7.30;4.07;;;17.70;99.90;;;;;;5125080;27;20245;-72
2022/05/17 01:28:29;;;;;;;4.00;3.60;;;17.70;99.90;;;;;;5125107;27;20169;-71
2022/05/17 01:31:02;;;;;;;4.55;3.70;;;17.70;99.90;;;;;;5124287;27;20198;-73
2022/05/17 01:33:30;;;;;;;5.00;3.90;;;17.80;99.90;;;;;;5124708;27;20177;-72
2022/05/17 01:35:56;;;;;;;4.10;3.70;;;17.80;99.90;;;;;;5139040;27;20197;-72
2022/05/17 01:38:21;;;;;;;4.68;4.03;;;17.70;99.90;;;;;;5124056;27;20189;-71
2022/05/17 01:40:47;;;;;;;8.45;4.10;;;17.80;99.90;;;;;;5125191;27;20178;-72
2022/05/17 01:43:12;;;;;;;5.10;3.78;;;17.70;99.90;;;;;;5124126;27;20219;-74
2022/05/17 01:45:38;;;;;;;6.15;4.22;;;17.70;99.90;;;;;;5126965;27;20606;-72
2022/05/17 01:48:04;;;;;;;4.88;3.90;;;17.70;99.90;;;;;;5126943;27;20185;-72
2022/05/17 01:50:30;;;;;;;6.40;4.18;;;17.70;99.90;;;;;;5134340;27;20186;-73
2022/05/17 01:52:55;;;;;;;5.90;4.28;;;17.70;99.90;;;;;;5129977;27;20181;-74
2022/05/17 01:55:21;;;;;;;5.60;4.20;;;17.70;99.90;;;;;;5127016;27;20676;-71
2022/05/17 01:57:47;;;;;;;6.07;4.40;;;17.70;99.90;;;;;;5123214;27;20290;-72
2022/05/17 02:00:14;;;;;;;7.70;4.90;;;17.70;99.90;;;;;;5124134;27;20224;-71
2022/05/17 02:02:40;;;;;;;8.05;4.97;;;17.70;99.90;;;;;;5095939;27;20201;-71
2022/05/17 02:05:07;;;;;;;6.93;4.55;;;17.70;99.90;;;;;;5123439;27;20189;-71
2022/05/17 02:07:32;;;;;;;8.10;4.93;;;17.70;99.90;;;;;;5123406;27;20213;-72
2022/05/17 02:09:58;;;;;;;5.28;4.78;;;17.70;99.90;;;;;;5139842;27;20195;-73
2022/05/17 02:12:24;;;;;;;7.90;5.05;;;17.70;99.90;;;;;;5122924;27;20177;-73
2022/05/17 02:14:50;;;;;;;8.18;5.18;;;17.70;99.90;;;;;;5125786;27;20651;-71
2022/05/17 02:17:15;;;;;;;6.25;5.07;;;17.70;99.90;;;;;;5122931;27;20195;-73
2022/05/17 02:19:41;;;;;;;7.78;5.25;;;17.70;99.90;;;;;;5126467;27;20223;-72
2022/05/17 02:22:07;;;;;;;9.50;5.70;;;17.70;99.90;;;;;;5127260;27;20184;-72
2022/05/17 02:24:33;;;;;;;9.20;4.97;;;17.70;99.90;;;;;;5128403;27;20625;-72
2022/05/17 02:26:59;;;;;;;8.82;5.50;;;17.70;99.90;;;;;;5128503;27;20166;-72
2022/05/17 02:29:25;;;;;;;5.60;4.95;;;17.60;99.90;;;;;;5125930;27;20643;-71
2022/05/17 02:31:51;;;;;;;7.57;5.53;;;17.60;99.90;;;;;;5126919;27;20194;-72
2022/05/17 02:34:19;;;;;;;8.65;5.85;;;17.60;99.90;;;;;;5127252;27;20181;-71
2022/05/17 02:36:44;;;;;;;9.05;5.97;;;17.60;99.90;;;;;;5126407;27;20186;-71
2022/05/17 02:39:11;;;;;;;6.35;5.22;;;17.60;99.90;;;;;;5128932;27;20181;-72
2022/05/17 02:41:37;;;;;;;8.27;6.40;;;17.60;99.90;;;;;;5108747;27;20551;-72
2022/05/17 02:44:03;;;;;;;7.90;6.43;;;17.70;99.90;;;;;;5125026;27;20177;-72
2022/05/17 02:46:31;;;;;;;7.45;6.40;;;17.60;99.90;;;;;;5125321;27;20642;-72
2022/05/17 02:48:58;;;;;;;7.25;6.55;;;17.60;99.90;;;;;;5125491;27;20173;-71
2022/05/17 02:51:24;;;;;;;11.52;6.90;;;17.60;99.90;;;;;;5142608;27;20185;-71
2022/05/17 02:53:49;;;;;;;9.18;6.88;;;17.50;99.90;;;;;;5106549;27;20656;-71
2022/05/17 02:56:15;;;;;;;11.18;7.47;;;17.40;99.90;;;;;;5124032;27;20551;-72
2022/05/17 02:58:41;;;;;;;10.07;7.25;;;17.50;99.90;;;;;;5124698;27;20186;-72
2022/05/17 03:01:08;;;;;;;9.45;7.25;;;17.40;99.90;;;;;;5120356;27;20577;-72
2022/05/17 03:03:40;;;;;;;12.57;7.70;;;17.40;99.90;;;;;;5116336;27;20181;-70
2022/05/17 03:06:06;;;;;;;9.80;7.93;;;17.50;99.90;;;;;;5121264;27;20736;-72
2022/05/17 03:08:32;;;;;;;11.52;8.63;;;17.40;99.90;;;;;;5122304;27;20265;-72
2022/05/17 03:10:57;;;;;;;12.93;8.82;;;17.40;99.90;;;;;;5123171;27;20265;-73
2022/05/17 03:13:23;;;;;;;10.15;8.25;;;17.40;99.90;;;;;;5105147;27;20185;-72
2022/05/17 03:15:53;;;;;;;14.07;8.75;;;17.40;99.90;;;;;;5123934;27;20705;-72
2022/05/17 03:18:18;;;;;;;11.93;9.27;;;17.50;99.90;;;;;;5125646;27;20186;-72
2022/05/17 03:20:44;;;;;;;13.93;9.50;;;17.40;99.90;;;;;;5122960;27;20183;-71
2022/05/17 03:23:10;;;;;;;17.75;9.90;;;17.40;99.90;;;;;;5121455;27;20177;-71
2022/05/17 03:25:36;;;;;;;12.27;10.55;;;17.40;99.90;;;;;;5122112;27;20643;-70
2022/05/17 03:28:03;;;;;;;12.00;9.60;;;17.30;99.90;;;;;;5121310;27;20180;-70
2022/05/17 03:30:29;;;;;;;13.13;9.88;;;17.40;99.90;;;;;;5122795;27;20181;-72
2022/05/17 03:32:55;;;;;;;16.60;10.27;;;17.30;99.90;;;;;;5126690;27;20182;-73
2022/05/17 03:35:21;;;;;;;11.40;10.05;;;17.30;99.90;;;;;;5122399;27;20250;-70
2022/05/17 03:37:47;;;;;;;12.77;10.27;;;17.30;99.90;;;;;;5124557;27;20200;-73
2022/05/17 03:40:13;;;;;;;14.00;10.67;;;17.20;99.90;;;;;;5123574;27;20189;-70
2022/05/17 03:42:39;;;;;;;11.30;10.10;;;17.30;99.90;;;;;;5122115;27;20209;-71
2022/05/17 03:45:05;;;;;;;16.63;10.43;;;17.30;99.90;;;;;;5122462;27;20629;-73
2022/05/17 03:47:33;;;;;;;11.60;9.65;;;17.20;99.90;;;;;;5122356;27;20190;-71
2022/05/17 03:49:59;;;;;;;13.55;10.55;;;17.20;99.90;;;;;;5137405;27;20185;-72
2022/05/17 03:52:29;;;;;;;13.15;10.23;;;17.20;99.90;;;;;;5120481;27;20253;-71
2022/05/17 03:54:58;;;;;;;14.57;9.38;;;17.10;99.90;;;;;;5137170;27;20204;-74
2022/05/17 03:57:28;;;;;;;13.30;10.15;;;17.10;99.90;;;;;;5121784;27;20178;-73
2022/05/17 03:59:54;;;;;;;16.42;9.25;;;17.10;99.90;;;;;;5121306;27;20261;-71
2022/05/17 04:02:21;;;;;;;12.80;9.35;;;17.10;99.90;;;;;;5102141;27;20537;-72
2022/05/17 04:04:47;;;;;;;11.95;9.10;;;17.10;99.90;;;;;;5121946;27;20212;-70
2022/05/17 04:07:13;;;;;;;9.18;8.18;;;16.90;99.90;;;;;;5119903;27;21081;-72
2022/05/17 04:09:39;;;;;;;11.67;8.30;;;16.90;99.90;;;;;;5121676;27;20620;-72
2022/05/17 04:12:05;;;;;;;11.20;8.17;;;17.00;99.90;;;;;;5121316;27;20166;-72
2022/05/17 04:14:31;;;;;;;15.82;7.95;;;16.90;99.90;;;;;;5121537;27;20621;-73
2022/05/17 04:16:57;;;;;;;8.20;6.57;;;16.80;99.90;;;;;;5120589;27;20197;-72
2022/05/17 04:19:23;;;;;;;7.13;5.20;;;16.60;99.90;;;;;;5121416;27;20165;-71
2022/05/17 04:21:49;;;;;;;7.10;5.37;;;16.40;99.90;;;;;;5121913;27;20181;-73
2022/05/17 04:24:14;;;;;;;5.87;5.00;;;16.20;99.90;;;;;;5122521;27;20771;-72
2022/05/17 04:26:41;;;;;;;6.87;5.23;;;16.20;99.90;;;;;;5120276;27;20178;-75
2022/05/17 04:29:08;;;;;;;5.90;5.13;;;16.10;99.90;;;;;;5121701;27;20183;-73
2022/05/17 04:31:35;;;;;;;6.43;5.10;;;16.10;99.90;;;;;;5122254;27;20261;-71
2022/05/17 04:34:02;;;;;;;10.67;5.30;;;16.10;99.90;;;;;;5138617;27;20189;-72
2022/05/17 04:36:28;;;;;;;8.50;5.50;;;16.10;99.90;;;;;;5123604;28;20208;-74
2022/05/17 04:38:53;;;;;;;8.33;5.60;;;16.00;99.90;;;;;;5126113;27;20265;-75
2022/05/17 04:41:19;;;;;;;5.87;4.80;;;15.90;99.90;;;;;;5123686;28;20227;-72
2022/05/17 04:43:46;;;;;;;6.33;4.17;;;15.90;99.90;;;;;;5121586;27;20685;-72
2022/05/17 04:46:12;;;;;;;6.93;4.40;;;15.90;99.90;;;;;;5122398;27;20177;-72
2022/05/17 04:48:38;;;;;;;7.03;4.80;;;15.90;99.90;;;;;;5124219;27;20220;-73
2022/05/17 04:51:12;;;;;;;5.90;4.53;;;16.00;99.90;;;;;;5124505;27;20174;-72
2022/05/17 04:53:39;;;;;;;5.47;4.27;;;16.00;99.90;;;;;;5124935;27;20178;-74
2022/05/17 04:56:06;;;;;;;7.00;4.67;;;15.90;99.90;;;;;;5124951;27;20283;-72
2022/05/17 04:58:33;;;;;;;6.70;4.13;;;16.00;99.90;;;;;;5125078;27;20626;-73
2022/05/17 05:00:59;;;;;;;6.57;5.00;;;16.00;99.90;;;;;;5139281;27;20281;-72
2022/05/17 05:03:25;;;;;;;8.00;5.00;;;15.90;99.90;;;;;;5115970;27;20257;-72
2022/05/17 05:05:50;;;;;;;8.07;5.40;;;15.90;99.90;;;;;;5124643;27;20676;-72
2022/05/17 05:08:16;;;;;;;6.87;5.43;;;15.90;99.90;;;;;;5124858;27;20189;-72
2022/05/17 05:10:44;;;;;;;8.77;5.47;;;15.80;99.90;;;;;;5123746;27;20186;-73
2022/05/17 05:13:28;;;;;;;6.63;5.43;;;15.80;99.90;;;;;;5115609;27;20182;-73
2022/05/17 05:15:56;;;;;;;5.87;5.27;;;15.80;99.90;;;;;;5126728;27;20201;-72
2022/05/17 05:18:22;;;;;;;7.37;5.40;;;15.90;99.90;;;;;;5125510;27;20178;-71
2022/05/17 05:20:48;;;;;;;7.57;5.13;;;15.90;99.90;;;;;;5107276;27;20189;-71
2022/05/17 05:23:14;;;;;;;10.13;5.67;;;15.80;99.90;;;;;;5105812;27;20189;-71
2022/05/17 05:25:40;;;;;;;6.60;5.53;;;15.80;99.90;;;;;;5124389;27;20279;-70
2022/05/17 05:28:07;;;;;;;8.10;6.57;;;15.90;99.90;;;;;;5124107;27;20400;-71
2022/05/17 05:30:33;;;;;;;7.63;5.70;;;15.80;99.90;;;;;;5123861;27;20285;-72
2022/05/17 05:32:59;;;;;;;9.57;6.03;;;15.80;99.90;;;;;;5125147;27;20612;-71
2022/05/17 05:35:25;;;;;;;14.87;5.73;;;15.80;99.90;;;;;;5124080;27;20201;-72
2022/05/17 05:37:52;;;;;;;6.87;5.50;;;15.80;99.90;;;;;;5123892;27;20174;-71
2022/05/17 05:40:19;;;;;;;6.43;5.30;;;15.70;99.90;;;;;;5123517;27;20217;-72
2022/05/17 05:42:45;;;;;;;10.63;6.57;;;15.80;99.90;;;;;;5124394;27;20225;-71
2022/05/17 05:45:11;;;;;;;6.63;5.30;;;15.70;99.90;;;;;;5123230;27;20182;-72
2022/05/17 05:47:37;;;;;;;5.23;4.67;;;15.60;99.90;;;;;;5125295;27;20219;-71
2022/05/17 05:50:03;;;;;;;6.23;5.10;;;15.70;99.90;;;;;;5124087;27;20271;-70
2022/05/17 05:52:29;;;;;;;6.73;5.33;;;15.70;99.90;;;;;;5126020;27;20189;-72
2022/05/17 05:54:55;;;;;;;9.97;5.60;;;15.70;99.90;;;;;;5124818;27;20629;-73
2022/05/17 05:57:21;;;;;;;9.83;4.93;;;15.70;99.90;;;;;;5125145;27;20185;-72
2022/05/17 05:59:46;;;;;;;6.87;4.87;;;15.60;99.90;;;;;;5125254;27;20188;-71
2022/05/17 06:02:12;;;;;;;11.87;5.90;;;15.70;99.90;;;;;;5124391;27;20629;-73
2022/05/17 06:04:38;;;;;;;9.03;5.67;;;15.70;99.90;;;;;;5126868;27;20637;-72
2022/05/17 06:07:04;;;;;;;5.63;4.90;;;15.70;99.90;;;;;;5124827;27;20661;-71
2022/05/17 06:09:30;;;;;;;6.23;4.80;;;15.60;99.90;;;;;;5123219;27;20193;-73
2022/05/17 06:11:57;;;;;;;6.87;5.37;;;15.60;99.90;;;;;;5123347;27;20254;-72
2022/05/17 06:14:23;;;;;;;8.70;5.50;;;15.60;99.90;;;;;;5123424;27;20186;-73
2022/05/17 06:16:50;;;;;;;7.37;5.40;;;15.60;99.90;;;;;;5124593;27;20165;-73
2022/05/17 06:19:16;;;;;;;5.60;5.10;;;15.60;99.90;;;;;;5123105;27;20201;-72
2022/05/17 06:21:42;;;;;;;6.70;5.37;;;15.60;99.90;;;;;;5124596;27;20184;-73
2022/05/17 06:24:08;;;;;;;9.20;5.33;;;15.60;99.90;;;;;;5125032;27;20170;-73
2022/05/17 06:26:34;;;;;;;6.87;5.10;;;15.60;99.90;;;;;;5125031;27;20509;-73
2022/05/17 06:29:00;;;;;;;6.27;4.70;;;15.50;99.90;;;;;;5124227;27;20249;-74
2022/05/17 06:31:25;;;;;;;8.53;4.87;;;15.50;99.90;;;;;;5124447;27;20166;-73
2022/05/17 06:33:51;;;;;;;8.03;5.30;;;15.40;99.90;;;;;;5123891;27;20747;-73
2022/05/17 06:36:17;;;;;;;8.73;5.20;;;15.40;99.90;;;;;;5123120;27;20201;-71
2022/05/17 06:38:42;;;;;;;7.73;5.20;;;15.40;99.90;;;;;;5122580;27;20545;-72
2022/05/17 06:41:08;;;;;;;8.93;5.37;;;15.50;99.90;;;;;;5123425;27;20176;-72
2022/05/17 06:43:34;;;;;;;6.97;5.20;;;15.40;99.90;;;;;;5124148;27;20302;-72
2022/05/17 06:46:01;;;;;;;6.30;4.93;;;15.40;99.90;;;;;;5123765;27;20186;-75
2022/05/17 06:48:28;;;;;;;9.60;5.27;;;15.40;99.90;;;;;;5139003;27;20238;-71
2022/05/17 06:50:54;;;;;;;6.13;5.20;;;15.40;99.90;;;;;;5123695;27;20190;-74
2022/05/17 06:53:20;;;;;;;10.10;5.40;;;15.50;99.90;;;;;;5122989;27;20416;-72
2022/05/17 06:55:45;;;;;;;9.60;5.77;;;15.50;99.90;;;;;;5123248;27;20205;-75
2022/05/17 06:58:11;;;;;;;10.03;5.63;;;15.50;99.90;;;;;;5121836;27;20182;-72
2022/05/17 07:00:37;;;;;;;6.90;5.57;;;15.50;99.90;;;;;;5122795;27;20257;-74
2022/05/17 07:03:02;;;;;;;6.83;5.10;;;15.50;99.90;;;;;;5122938;27;20919;-72
2022/05/17 07:05:32;;;;;;;9.53;5.13;;;15.60;99.90;;;;;;5105448;27;20197;-73
2022/05/17 07:08:02;;;;;;;7.00;5.00;;;15.50;99.90;;;;;;5122686;27;20185;-73
2022/05/17 07:13:13;;;;;;;8.13;4.40;;;15.50;99.90;;;;;;5124801;27;20265;-73
2022/05/17 07:15:50;;;;;;;7.20;4.93;;;15.60;99.90;;;;;;5124479;27;20206;-73
2022/05/17 07:18:20;;;;;;;7.10;4.97;;;15.60;99.90;;;;;;5138476;27;20639;-73
2022/05/17 07:20:47;;;;;;;5.00;4.40;;;15.60;99.90;;;;;;5127673;27;20260;-72
2022/05/17 07:23:14;;;;;;;8.13;5.03;;;15.60;99.90;;;;;;5124563;27;20192;-72
2022/05/17 07:25:40;;;;;;;6.10;4.90;;;15.80;99.90;;;;;;5107446;27;20181;-72
2022/05/17 07:28:08;;;;;;;5.33;4.73;;;15.80;99.90;;;;;;5112894;27;20203;-74
2022/05/17 07:30:34;;;;;;;8.27;4.93;;;15.80;99.90;;;;;;5136686;27;20245;-71
2022/05/17 07:32:59;;;;;;;5.50;4.47;;;15.80;99.90;;;;;;5127524;27;20217;-72
2022/05/17 07:35:25;;;;;;;5.57;4.83;;;15.80;99.90;;;;;;5121072;27;20701;-72
2022/05/17 07:37:51;;;;;;;5.83;4.53;;;15.80;99.90;;;;;;5123006;27;20177;-73
2022/05/17 07:40:17;;;;;;;8.03;4.17;;;15.90;99.90;;;;;;5121945;27;20200;-71
2022/05/17 07:42:43;;;;;;;6.63;4.97;;;15.90;99.90;;;;;;5122808;27;20178;-72
2022/05/17 07:45:11;;;;;;;7.83;4.87;;;15.80;99.90;;;;;;5122135;27;20180;-73
2022/05/17 07:47:37;;;;;;;5.13;4.57;;;15.80;99.90;;;;;;5121128;27;20532;-72
2022/05/17 07:50:04;;;;;;;6.60;4.70;;;15.90;99.90;;;;;;5122465;27;20195;-71
2022/05/17 07:52:31;;;;;;;5.43;4.93;;;15.90;99.90;;;;;;5122009;27;20176;-74
2022/05/17 07:54:57;;;;;;;11.10;4.33;;;15.90;99.90;;;;;;5137341;27;20202;-71
2022/05/17 07:57:23;;;;;;;5.13;4.47;;;15.90;99.90;;;;;;5122150;27;20177;-72
2022/05/17 07:59:49;;;;;;;7.37;4.83;;;15.80;99.90;;;;;;5122606;27;20184;-73
2022/05/17 08:02:15;;;;;;;5.27;4.40;;;15.80;99.90;;;;;;5123085;27;20193;-72
2022/05/17 08:04:41;;;;;;;6.50;5.03;;;15.80;99.90;;;;;;5122035;27;20268;-71
2022/05/17 08:07:08;;;;;;;8.07;4.97;;;15.90;99.90;;;;;;5121680;27;20241;-72
2022/05/17 08:09:35;;;;;;;7.00;4.80;;;15.90;99.90;;;;;;5127940;27;20168;-71
2022/05/17 08:12:02;;;;;;;5.53;4.53;;;16.10;99.90;;;;;;5140166;27;20174;-73
2022/05/17 08:14:28;;;;;;;6.77;4.50;;;16.00;99.90;;;;;;5124349;27;20174;-74
2022/05/17 08:16:53;;;;;;;6.10;4.67;;;15.90;99.90;;;;;;5124676;27;20229;-72
2022/05/17 08:19:19;;;;;;;7.27;4.80;;;16.00;99.90;;;;;;5123757;27;20173;-73
2022/05/17 08:21:45;;;;;;;6.47;4.63;;;16.00;99.90;;;;;;5104591;28;20524;-72
2022/05/17 08:24:11;;;;;;;5.40;4.57;;;16.00;99.90;;;;;;5121349;27;20189;-72
2022/05/17 08:29:21;;;;;;;5.20;4.73;;;16.00;99.90;;;;;;5123564;27;20230;-73
2022/05/17 08:33:14;;;;;;;7.30;4.80;;;16.00;99.90;;;;;;5122803;27;20169;-72
2022/05/17 08:34:32;;;;;;;9.70;6.70;;;16.10;99.90;;;;;;5124323;27;20647;-73
2022/05/17 08:36:58;;;;;;;11.60;6.50;;;16.10;99.90;;;;;;5122863;28;20186;-73
2022/05/17 08:39:26;;;;;;;7.80;5.50;;;16.10;99.90;;;;;;5125138;27;20178;-73
2022/05/17 08:42:00;;;;;;;6.97;5.60;;;16.20;99.90;;;;;;5108675;28;20177;-74
2022/05/17 08:44:50;;;;;;;7.27;5.53;;;16.20;99.90;;;;;;5144180;27;20217;-72
2022/05/17 08:47:34;;;;;;;6.80;5.80;;;16.20;99.90;;;;;;5117180;27;20197;-71
2022/05/17 08:50:05;;;;;;;7.60;5.70;;;16.20;99.90;;;;;;5124158;28;20180;-72
2022/05/17 08:52:33;;;;;;;7.23;4.97;;;16.20;99.90;;;;;;5122417;28;20181;-72
2022/05/17 08:55:01;;;;;;;9.90;5.87;;;16.40;99.90;;;;;;5121062;28;20215;-73
2022/05/17 08:57:49;;;;;;;10.37;5.33;;;16.40;99.90;;;;;;5120241;28;20170;-72
2022/05/17 09:00:33;;;;;;;6.83;5.33;;;16.40;99.90;;;;;;5121142;28;20180;-72
2022/05/17 09:03:10;;;;;;;5.90;5.30;;;16.50;99.90;;;;;;5109385;28;20185;-72
2022/05/17 09:06:06;;;;;;;7.07;6.03;;;16.60;99.90;;;;;;5120795;28;20197;-72
2022/05/17 09:08:41;;;;;;;9.80;5.90;;;16.70;99.90;;;;;;5116134;28;20649;-72
2022/05/17 09:11:26;;;;;;;7.80;6.05;;;16.80;99.90;;;;;;5110198;28;20662;-73
2022/05/17 09:14:04;;;;;;;9.15;5.75;;;17.00;99.90;;;;;;5122047;28;20182;-73
2022/05/17 09:16:34;;;;;;;8.52;6.07;;;17.00;99.90;;;;;;5122072;28;20205;-72
2022/05/17 09:18:59;;;;;;;7.28;6.00;;;16.90;99.90;;;;;;5120207;28;20178;-72
2022/05/17 09:21:36;;;;;;;7.33;5.60;;;16.90;99.90;;;;;;5120799;28;20196;-73
2022/05/17 09:24:12;;;;;;;10.52;6.57;;;16.80;99.90;;;;;;5122294;28;20266;-72
2022/05/17 09:26:39;;;;;;;6.63;5.60;;;16.80;99.90;;;;;;5122140;28;20180;-73
2022/05/17 09:29:22;;;;;;;6.70;6.03;;;16.90;99.90;;;;;;5122662;28;20198;-73
2022/05/17 09:32:00;;;;;;;6.72;5.95;;;16.90;99.90;;;;;;5121637;28;20671;-72
2022/05/17 09:34:34;;;;;;;8.10;5.85;;;17.10;99.90;;;;;;5139169;27;20265;-72
2022/05/17 09:37:11;;;;;;;7.97;5.75;;;17.10;99.90;;;;;;5124312;27;20231;-73
2022/05/17 09:39:37;;;;;;;7.50;6.32;;;16.80;99.90;;;;;;5142422;27;20638;-72
2022/05/17 09:42:06;;;;;;;8.30;6.75;;;16.80;99.90;;;;;;5125239;27;20185;-72
2022/05/17 09:44:33;;;;;;;7.82;6.72;;;16.90;99.90;;;;;;5141547;27;20185;-72
2022/05/17 09:47:05;;;;;;;11.63;6.80;;;16.90;99.90;;;;;;5125485;27;20188;-72
2022/05/17 09:52:35;;;;;;;10.63;6.18;;;17.00;99.90;;;;;;5125021;27;20303;-73
2022/05/17 09:55:27;;;;;;;7.78;6.72;;;17.00;99.90;;;;;;5124311;27;20659;-72
2022/05/17 09:58:01;;;;;;;9.07;6.85;;;16.90;99.90;;;;;;5125805;27;20194;-73
2022/05/17 10:00:41;;;;;;;8.02;6.40;;;16.90;99.90;;;;;;5124535;27;20184;-73
2022/05/17 10:03:28;;;;;;;7.17;6.00;;;17.00;99.90;;;;;;5125340;27;20178;-72
2022/05/17 10:06:28;;;;;;;10.85;6.00;;;17.10;99.90;;;;;;5136587;27;20562;-75
2022/05/17 10:09:01;;;;;;;7.13;6.00;;;17.10;99.90;;;;;;5101275;27;20189;-72
2022/05/17 10:11:28;;;;;;;10.73;5.63;;;17.10;99.90;;;;;;5103244;28;20227;-72
2022/05/17 10:13:58;;;;;;;7.20;6.15;;;17.10;99.90;;;;;;5107846;28;20186;-74
2022/05/17 10:16:39;;;;;;;10.65;7.28;;;17.20;99.90;;;;;;5103181;28;20198;-72
2022/05/17 10:19:17;;;;;;;10.25;6.30;;;17.20;99.90;;;;;;5105774;28;20190;-72
2022/05/17 10:21:58;;;;;;;9.60;6.78;;;17.10;99.90;;;;;;5118790;28;20193;-75
2022/05/17 10:24:42;;;;;;;10.32;6.75;;;17.00;99.90;;;;;;5104722;28;20678;-73
2022/05/17 10:27:32;;;;;;;10.25;6.43;;;17.00;99.90;;;;;;5102855;28;20633;-74
2022/05/17 10:30:06;;;;;;;8.93;7.13;;;17.00;99.90;;;;;;5091337;28;20191;-72
2022/05/17 10:32:41;;;;;;;9.00;6.78;;;17.00;99.90;;;;;;5104368;28;20637;-73
2022/05/17 10:35:16;;;;;;;8.83;6.67;;;17.00;99.90;;;;;;5104833;28;20337;-73
2022/05/17 10:38:10;;;;;;;11.15;7.88;;;17.10;99.90;;;;;;5102993;28;20504;-75
2022/05/17 10:40:43;;;;;;;10.80;6.97;;;17.00;99.90;;;;;;5104810;27;20182;-72
2022/05/17 10:43:15;;;;;;;10.10;7.10;;;17.10;99.90;;;;;;5106758;28;20451;-73
2022/05/17 10:45:44;;;;;;;8.88;7.25;;;17.20;99.90;;;;;;5105709;28;20233;-74
2022/05/17 10:48:25;;;;;;;9.65;7.45;;;17.20;99.90;;;;;;5103703;28;20198;-73
2022/05/17 10:51:06;;;;;;;10.80;7.57;;;17.30;99.90;;;;;;5103320;28;20242;-76
2022/05/17 10:53:50;;;;;;;8.50;7.60;;;17.40;99.90;;;;;;5102700;28;20660;-72
2022/05/17 10:56:19;;;;;;;8.30;7.13;;;17.50;99.90;;;;;;5101347;28;20202;-74
2022/05/17 10:59:34;;;;;;;7.90;7.03;;;17.60;99.90;;;;;;5101970;28;20537;-75
2022/05/17 11:02:00;;;;;;;9.65;6.63;;;17.70;99.90;;;;;;5086887;28;20211;-72
2022/05/17 11:04:57;;;;;;;7.40;6.70;;;17.80;99.90;;;;;;5100689;28;20199;-74
2022/05/17 11:07:47;;;;;;;8.82;7.22;;;18.00;99.90;;;;;;5073788;28;20230;-74
2022/05/17 11:10:26;;;;;;;14.50;8.75;;;18.10;99.90;;;;;;5092336;28;20179;-74
2022/05/17 11:13:21;;;;;;;11.07;6.85;;;18.40;99.90;;;;;;5102693;28;20170;-75
2022/05/17 11:15:55;;;;;;;9.90;6.75;;;18.60;99.90;;;;;;5101824;28;20599;-72
2022/05/17 11:18:40;;;;;;;7.18;6.47;;;18.60;99.90;;;;;;5102931;28;20170;-72
2022/05/17 11:21:15;;;;;;;8.48;6.78;;;18.60;99.90;;;;;;5104225;28;20170;-75
2022/05/17 11:23:50;;;;;;;9.93;7.38;;;18.70;99.90;;;;;;5100337;28;20196;-71
2022/05/17 11:26:35;;;;;;;8.00;7.00;;;18.80;99.90;;;;;;5101825;28;20186;-73
2022/05/17 11:29:25;;;;;;;11.30;6.47;;;18.70;99.90;;;;;;5102133;28;20193;-73
2022/05/17 11:31:59;;;;;;;8.32;6.07;;;18.60;99.90;;;;;;5101707;28;20178;-73
2022/05/17 11:34:31;;;;;;;8.23;6.72;;;18.50;99.90;;;;;;5103233;28;20210;-73
2022/05/17 11:36:59;;;;;;;7.63;5.55;;;18.60;99.90;;;;;;5088904;28;20198;-72
2022/05/17 11:39:31;;;;;;;7.82;6.50;;;18.70;99.90;;;;;;5105102;27;20197;-75
2022/05/17 11:42:31;;;;;;;6.57;5.53;;;18.70;99.90;;;;;;5102061;28;20184;-72
2022/05/17 11:45:24;;;;;;;8.63;6.35;;;18.80;99.90;;;;;;5097437;28;20337;-73
2022/05/17 11:47:56;;;;;;;8.00;6.18;;;18.90;99.90;;;;;;5103631;28;20279;-73
2022/05/17 11:51:03;;;;;;;9.23;6.43;;;18.80;99.90;;;;;;5100526;28;20199;-72
2022/05/17 11:53:30;;;;;;;7.13;5.78;;;19.10;99.90;;;;;;5102357;28;20264;-72
2022/05/17 11:56:32;;;;;;;8.52;5.75;;;19.20;99.90;;;;;;5102174;28;20241;-72
2022/05/17 11:59:12;;;;;;;7.95;6.43;;;19.30;99.90;;;;;;5102728;28;20311;-73
2022/05/17 12:01:37;;;;;;;7.03;6.03;;;18.90;99.90;;;;;;5100729;28;20173;-72
2022/05/17 12:04:26;;;;;;;8.23;6.00;;;18.80;99.90;;;;;;5102114;28;20740;-71
2022/05/17 12:06:52;;;;;;;8.48;6.00;;;18.90;99.90;;;;;;5112711;27;20225;-73
2022/05/17 12:09:20;;;;;;;7.55;5.60;;;19.10;99.90;;;;;;5122239;27;20452;-72
2022/05/17 12:12:29;;;;;;;8.90;5.75;;;19.20;99.90;;;;;;5121408;27;20478;-72
2022/05/17 12:15:10;;;;;;;8.07;6.03;;;19.10;99.90;;;;;;5118172;27;20196;-74
2022/05/17 12:17:47;;;;;;;6.75;5.97;;;19.30;99.90;;;;;;5122051;27;20189;-72
2022/05/17 12:20:22;;;;;;;9.15;5.47;;;19.50;99.90;;;;;;5122282;27;20181;-72
2022/05/17 12:23:23;;;;;;;6.15;5.05;;;19.30;99.90;;;;;;5121441;27;20176;-71
2022/05/17 12:26:10;;;;;;;7.30;5.43;;;19.40;99.90;;;;;;5112844;27;20661;-70
2022/05/17 12:28:46;;;;;;;8.60;4.88;;;19.80;99.90;;;;;;5120872;27;20181;-71
2022/05/17 12:31:19;;;;;;;6.85;5.05;;;19.70;99.90;;;;;;5120892;27;20259;-72
2022/05/17 12:33:47;;;;;;;5.57;4.63;;;19.90;99.90;;;;;;5123721;27;20179;-71
2022/05/17 12:36:17;;;;;;;7.22;4.47;;;20.00;99.90;;;;;;5124959;27;20212;-72
2022/05/17 12:44:53;;;;;;;5.78;4.43;;;19.80;99.90;;;;;;5136095;28;20200;-71
2022/05/17 12:47:41;;;;;;;6.55;4.70;;;19.70;99.90;;;;;;5134713;28;20185;-73
2022/05/17 12:50:15;;;;;;;7.28;5.10;;;19.80;99.90;;;;;;5136034;28;20177;-71
2022/05/17 12:52:41;;;;;;;7.38;5.07;;;19.90;99.90;;;;;;5123021;28;20177;-72
2022/05/17 12:55:11;;;;;;;5.15;4.65;;;19.90;99.90;;;;;;5121577;28;20200;-71
2022/05/17 12:57:39;;;;;;;6.20;5.28;;;19.60;99.90;;;;;;5110442;28;20177;-74
2022/05/17 13:00:17;;;;;;;6.55;4.90;;;19.60;99.90;;;;;;5123548;28;20189;-70
2022/05/17 13:02:47;;;;;;;7.47;4.72;;;19.50;99.90;;;;;;5124766;28;20261;-73
2022/05/17 13:05:51;;;;;;;5.75;5.10;;;19.50;99.90;;;;;;5121202;28;20193;-71
2022/05/17 13:08:29;;;;;;;5.80;4.60;;;19.30;99.90;;;;;;5057549;28;20268;-71
2022/05/17 13:11:06;;;;;;;7.47;5.15;;;19.30;99.90;;;;;;5063013;28;20674;-71
2022/05/17 13:13:34;;;;;;;8.63;5.53;;;19.30;99.90;;;;;;5081369;28;20182;-76
2022/05/17 13:16:06;;;;;;;6.10;5.07;;;19.30;99.90;;;;;;5072182;28;20855;-71
2022/05/17 13:18:39;;;;;;;6.88;5.00;;;19.30;99.90;;;;;;5044920;28;20183;-69
2022/05/17 13:21:08;;;;;;;7.00;5.22;;;19.40;99.90;;;;;;5061031;28;20186;-71